sensor_id;sensor_type;location;lat;lon;timestamp;P1;durP1;ratioP1;P2;durP2;ratioP2
8823;SDS011;4448;50.904;4.694;2022-10-13T00:01:16;12.53;;;4.57;;
8823;SDS011;4448;50.904;4.694;2022-10-13T00:03:44;12.20;;;5.33;;
8823;SDS011;4448;50.904;4.694;2022-10-13T00:06:11;12.23;;;6.10;;
8823;SDS011;4448;50.904;4.694;2022-10-13T00:08:38;11.63;;;4.60;;
8823;SDS011;4448;50.904;4.694;2022-10-13T00:11:18;2.17;;;1.97;;
8823;SDS011;4448;50.904;4.694;2022-10-13T00:13:46;12.10;;;6.10;;
8823;SDS011;4448;50.904;4.694;2022-10-13T00:16:13;11.60;;;6.03;;
8823;SDS011;4448;50.904;4.694;2022-10-13T00:18:41;6.20;;;3.83;;
8823;SDS011;4448;50.904;4.694;2022-10-13T00:21:08;10.77;;;5.93;;
8823;SDS011;4448;50.904;4.694;2022-10-13T00:23:36;8.33;;;5.07;;
8823;SDS011;4448;50.904;4.694;2022-10-13T00:26:04;9.03;;;4.00;;
8823;SDS011;4448;50.904;4.694;2022-10-13T00:28:31;10.20;;;3.70;;
8823;SDS011;4448;50.904;4.694;2022-10-13T00:30:57;6.30;;;3.57;;
8823;SDS011;4448;50.904;4.694;2022-10-13T00:33:23;6.13;;;3.70;;
8823;SDS011;4448;50.904;4.694;2022-10-13T00:35:49;10.07;;;4.97;;
8823;SDS011;4448;50.904;4.694;2022-10-13T00:38:16;5.87;;;3.30;;
8823;SDS011;4448;50.904;4.694;2022-10-13T00:40:44;9.00;;;4.17;;
8823;SDS011;4448;50.904;4.694;2022-10-13T00:46:22;5.00;;;3.17;;
8823;SDS011;4448;50.904;4.694;2022-10-13T00:48:50;3.20;;;3.00;;
8823;SDS011;4448;50.904;4.694;2022-10-13T00:51:18;7.10;;;4.40;;
8823;SDS011;4448;50.904;4.694;2022-10-13T00:53:46;8.33;;;5.17;;
8823;SDS011;4448;50.904;4.694;2022-10-13T00:56:14;9.20;;;4.03;;
8823;SDS011;4448;50.904;4.694;2022-10-13T00:58:43;3.97;;;3.57;;
8823;SDS011;4448;50.904;4.694;2022-10-13T01:01:11;9.00;;;4.37;;
8823;SDS011;4448;50.904;4.694;2022-10-13T01:03:37;9.73;;;3.67;;
8823;SDS011;4448;50.904;4.694;2022-10-13T01:06:03;6.60;;;4.20;;
8823;SDS011;4448;50.904;4.694;2022-10-13T01:08:31;6.73;;;3.70;;
8823;SDS011;4448;50.904;4.694;2022-10-13T01:11:01;10.40;;;5.77;;
8823;SDS011;4448;50.904;4.694;2022-10-13T01:22:38;11.63;;;5.93;;
8823;SDS011;4448;50.904;4.694;2022-10-13T01:27:50;3.30;;;2.53;;
8823;SDS011;4448;50.904;4.694;2022-10-13T01:30:43;12.03;;;5.90;;
8823;SDS011;4448;50.904;4.694;2022-10-13T01:36:04;10.13;;;4.53;;
8823;SDS011;4448;50.904;4.694;2022-10-13T01:44:13;9.10;;;4.53;;
8823;SDS011;4448;50.904;4.694;2022-10-13T01:46:47;8.27;;;5.00;;
8823;SDS011;4448;50.904;4.694;2022-10-13T01:49:16;13.43;;;5.40;;
8823;SDS011;4448;50.904;4.694;2022-10-13T01:51:44;5.77;;;4.23;;
8823;SDS011;4448;50.904;4.694;2022-10-13T01:54:11;7.17;;;4.00;;
8823;SDS011;4448;50.904;4.694;2022-10-13T01:56:37;8.50;;;4.70;;
8823;SDS011;4448;50.904;4.694;2022-10-13T01:59:10;9.20;;;5.13;;
8823;SDS011;4448;50.904;4.694;2022-10-13T02:07:04;8.27;;;5.57;;
8823;SDS011;4448;50.904;4.694;2022-10-13T02:09:55;10.00;;;5.00;;
8823;SDS011;4448;50.904;4.694;2022-10-13T02:12:33;5.07;;;3.53;;
8823;SDS011;4448;50.904;4.694;2022-10-13T02:15:06;8.60;;;3.03;;
8823;SDS011;4448;50.904;4.694;2022-10-13T02:17:36;12.37;;;4.77;;
8823;SDS011;4448;50.904;4.694;2022-10-13T02:20:04;6.60;;;3.80;;
8823;SDS011;4448;50.904;4.694;2022-10-13T02:22:32;11.70;;;5.63;;
8823;SDS011;4448;50.904;4.694;2022-10-13T02:25:04;15.07;;;5.53;;
8823;SDS011;4448;50.904;4.694;2022-10-13T02:27:31;10.60;;;5.50;;
8823;SDS011;4448;50.904;4.694;2022-10-13T02:29:57;8.77;;;5.10;;
8823;SDS011;4448;50.904;4.694;2022-10-13T02:32:23;6.30;;;3.47;;
8823;SDS011;4448;50.904;4.694;2022-10-13T02:34:49;14.70;;;5.20;;
8823;SDS011;4448;50.904;4.694;2022-10-13T02:37:17;15.50;;;4.70;;
8823;SDS011;4448;50.904;4.694;2022-10-13T02:39:43;7.53;;;4.80;;
8823;SDS011;4448;50.904;4.694;2022-10-13T02:42:09;11.27;;;6.33;;
8823;SDS011;4448;50.904;4.694;2022-10-13T02:44:35;8.27;;;5.50;;
8823;SDS011;4448;50.904;4.694;2022-10-13T02:47:00;11.63;;;5.07;;
8823;SDS011;4448;50.904;4.694;2022-10-13T02:49:26;10.73;;;5.80;;
8823;SDS011;4448;50.904;4.694;2022-10-13T02:51:52;10.77;;;5.70;;
8823;SDS011;4448;50.904;4.694;2022-10-13T02:54:18;8.43;;;4.27;;
8823;SDS011;4448;50.904;4.694;2022-10-13T02:56:43;10.33;;;5.73;;
8823;SDS011;4448;50.904;4.694;2022-10-13T02:59:09;6.03;;;3.80;;
8823;SDS011;4448;50.904;4.694;2022-10-13T03:01:36;12.60;;;5.87;;
8823;SDS011;4448;50.904;4.694;2022-10-13T03:04:06;9.93;;;5.50;;
8823;SDS011;4448;50.904;4.694;2022-10-13T03:06:32;26.67;;;4.80;;
8823;SDS011;4448;50.904;4.694;2022-10-13T03:08:58;10.07;;;5.90;;
8823;SDS011;4448;50.904;4.694;2022-10-13T03:11:24;12.33;;;5.70;;
8823;SDS011;4448;50.904;4.694;2022-10-13T03:13:49;14.97;;;4.70;;
8823;SDS011;4448;50.904;4.694;2022-10-13T03:16:15;4.70;;;3.93;;
8823;SDS011;4448;50.904;4.694;2022-10-13T03:18:41;7.97;;;4.63;;
8823;SDS011;4448;50.904;4.694;2022-10-13T03:21:07;7.00;;;2.50;;
8823;SDS011;4448;50.904;4.694;2022-10-13T03:23:34;9.27;;;3.90;;
8823;SDS011;4448;50.904;4.694;2022-10-13T03:25:59;14.17;;;6.20;;
8823;SDS011;4448;50.904;4.694;2022-10-13T03:28:26;11.17;;;5.33;;
8823;SDS011;4448;50.904;4.694;2022-10-13T03:31:05;9.33;;;4.87;;
8823;SDS011;4448;50.904;4.694;2022-10-13T03:33:32;12.90;;;6.43;;
8823;SDS011;4448;50.904;4.694;2022-10-13T03:36:01;22.70;;;7.60;;
8823;SDS011;4448;50.904;4.694;2022-10-13T03:38:29;12.40;;;5.60;;
8823;SDS011;4448;50.904;4.694;2022-10-13T03:40:56;10.97;;;7.73;;
8823;SDS011;4448;50.904;4.694;2022-10-13T03:43:22;13.47;;;6.60;;
8823;SDS011;4448;50.904;4.694;2022-10-13T03:45:55;11.40;;;3.93;;
8823;SDS011;4448;50.904;4.694;2022-10-13T03:48:22;13.17;;;6.63;;
8823;SDS011;4448;50.904;4.694;2022-10-13T03:50:48;17.27;;;7.33;;
8823;SDS011;4448;50.904;4.694;2022-10-13T03:53:15;12.43;;;5.93;;
8823;SDS011;4448;50.904;4.694;2022-10-13T03:55:40;7.47;;;4.07;;
8823;SDS011;4448;50.904;4.694;2022-10-13T03:58:06;4.03;;;2.93;;
8823;SDS011;4448;50.904;4.694;2022-10-13T04:00:36;15.70;;;7.00;;
8823;SDS011;4448;50.904;4.694;2022-10-13T04:03:02;14.97;;;6.43;;
8823;SDS011;4448;50.904;4.694;2022-10-13T04:05:27;14.97;;;5.73;;
8823;SDS011;4448;50.904;4.694;2022-10-13T04:07:53;12.33;;;6.87;;
8823;SDS011;4448;50.904;4.694;2022-10-13T04:10:19;9.83;;;5.30;;
8823;SDS011;4448;50.904;4.694;2022-10-13T04:12:47;9.27;;;5.13;;
8823;SDS011;4448;50.904;4.694;2022-10-13T04:15:13;8.30;;;4.97;;
8823;SDS011;4448;50.904;4.694;2022-10-13T04:17:39;12.73;;;5.27;;
8823;SDS011;4448;50.904;4.694;2022-10-13T04:20:04;9.47;;;4.17;;
8823;SDS011;4448;50.904;4.694;2022-10-13T04:22:31;9.57;;;5.20;;
8823;SDS011;4448;50.904;4.694;2022-10-13T04:24:56;7.13;;;4.50;;
8823;SDS011;4448;50.904;4.694;2022-10-13T04:27:22;7.13;;;4.80;;
8823;SDS011;4448;50.904;4.694;2022-10-13T04:29:48;11.30;;;4.17;;
8823;SDS011;4448;50.904;4.694;2022-10-13T04:32:13;8.70;;;3.73;;
8823;SDS011;4448;50.904;4.694;2022-10-13T04:34:39;9.93;;;4.97;;
8823;SDS011;4448;50.904;4.694;2022-10-13T04:37:04;10.10;;;5.70;;
8823;SDS011;4448;50.904;4.694;2022-10-13T04:39:30;9.63;;;5.13;;
8823;SDS011;4448;50.904;4.694;2022-10-13T04:41:56;3.50;;;2.77;;
8823;SDS011;4448;50.904;4.694;2022-10-13T04:44:21;12.33;;;6.37;;
8823;SDS011;4448;50.904;4.694;2022-10-13T04:46:47;6.70;;;3.93;;
8823;SDS011;4448;50.904;4.694;2022-10-13T04:49:13;13.67;;;6.27;;
8823;SDS011;4448;50.904;4.694;2022-10-13T04:51:40;7.43;;;3.80;;
8823;SDS011;4448;50.904;4.694;2022-10-13T04:54:05;10.53;;;5.53;;
8823;SDS011;4448;50.904;4.694;2022-10-13T04:56:31;18.83;;;3.03;;
8823;SDS011;4448;50.904;4.694;2022-10-13T04:58:57;7.37;;;5.40;;
8823;SDS011;4448;50.904;4.694;2022-10-13T05:01:24;2.60;;;1.87;;
8823;SDS011;4448;50.904;4.694;2022-10-13T05:03:50;11.80;;;4.37;;
8823;SDS011;4448;50.904;4.694;2022-10-13T05:06:18;7.60;;;4.80;;
8823;SDS011;4448;50.904;4.694;2022-10-13T05:08:46;7.57;;;4.10;;
8823;SDS011;4448;50.904;4.694;2022-10-13T05:11:13;13.00;;;5.83;;
8823;SDS011;4448;50.904;4.694;2022-10-13T05:13:40;5.83;;;3.80;;
8823;SDS011;4448;50.904;4.694;2022-10-13T05:16:06;10.67;;;4.17;;
8823;SDS011;4448;50.904;4.694;2022-10-13T05:18:36;15.10;;;6.83;;
8823;SDS011;4448;50.904;4.694;2022-10-13T05:21:06;19.57;;;6.67;;
8823;SDS011;4448;50.904;4.694;2022-10-13T05:23:33;6.73;;;4.93;;
8823;SDS011;4448;50.904;4.694;2022-10-13T05:26:01;5.23;;;3.50;;
8823;SDS011;4448;50.904;4.694;2022-10-13T05:28:37;14.37;;;5.40;;
8823;SDS011;4448;50.904;4.694;2022-10-13T05:33:43;8.50;;;5.03;;
8823;SDS011;4448;50.904;4.694;2022-10-13T05:36:11;10.77;;;5.33;;
8823;SDS011;4448;50.904;4.694;2022-10-13T05:38:43;8.17;;;5.37;;
8823;SDS011;4448;50.904;4.694;2022-10-13T05:41:09;9.53;;;4.50;;
8823;SDS011;4448;50.904;4.694;2022-10-13T05:43:36;9.77;;;4.00;;
8823;SDS011;4448;50.904;4.694;2022-10-13T05:46:06;9.53;;;6.83;;
8823;SDS011;4448;50.904;4.694;2022-10-13T05:48:33;12.17;;;5.30;;
8823;SDS011;4448;50.904;4.694;2022-10-13T05:50:59;10.47;;;5.93;;
8823;SDS011;4448;50.904;4.694;2022-10-13T05:53:29;12.03;;;6.13;;
8823;SDS011;4448;50.904;4.694;2022-10-13T05:55:58;16.13;;;7.17;;
8823;SDS011;4448;50.904;4.694;2022-10-13T05:58:33;10.23;;;5.13;;
8823;SDS011;4448;50.904;4.694;2022-10-13T06:01:04;9.87;;;5.50;;
8823;SDS011;4448;50.904;4.694;2022-10-13T06:03:32;11.77;;;5.03;;
8823;SDS011;4448;50.904;4.694;2022-10-13T06:05:59;11.63;;;3.93;;
8823;SDS011;4448;50.904;4.694;2022-10-13T06:08:25;11.30;;;5.30;;
8823;SDS011;4448;50.904;4.694;2022-10-13T06:10:51;13.63;;;7.03;;
8823;SDS011;4448;50.904;4.694;2022-10-13T06:13:17;7.40;;;4.20;;
8823;SDS011;4448;50.904;4.694;2022-10-13T06:15:42;7.17;;;3.90;;
8823;SDS011;4448;50.904;4.694;2022-10-13T06:18:08;12.03;;;4.37;;
8823;SDS011;4448;50.904;4.694;2022-10-13T06:20:35;7.87;;;4.07;;
8823;SDS011;4448;50.904;4.694;2022-10-13T06:23:01;9.70;;;5.13;;
8823;SDS011;4448;50.904;4.694;2022-10-13T06:25:26;7.83;;;5.10;;
8823;SDS011;4448;50.904;4.694;2022-10-13T06:27:53;8.63;;;4.23;;
8823;SDS011;4448;50.904;4.694;2022-10-13T06:30:20;9.27;;;4.37;;
8823;SDS011;4448;50.904;4.694;2022-10-13T06:32:46;10.70;;;3.57;;
8823;SDS011;4448;50.904;4.694;2022-10-13T06:35:11;9.27;;;5.17;;
8823;SDS011;4448;50.904;4.694;2022-10-13T06:37:37;18.73;;;7.97;;
8823;SDS011;4448;50.904;4.694;2022-10-13T06:40:03;9.83;;;4.40;;
8823;SDS011;4448;50.904;4.694;2022-10-13T06:42:30;11.30;;;5.07;;
8823;SDS011;4448;50.904;4.694;2022-10-13T06:44:57;18.97;;;7.30;;
8823;SDS011;4448;50.904;4.694;2022-10-13T06:47:23;12.57;;;6.13;;
8823;SDS011;4448;50.904;4.694;2022-10-13T06:49:49;6.33;;;4.60;;
8823;SDS011;4448;50.904;4.694;2022-10-13T06:52:15;11.53;;;6.60;;
8823;SDS011;4448;50.904;4.694;2022-10-13T06:54:40;12.73;;;4.37;;
8823;SDS011;4448;50.904;4.694;2022-10-13T06:57:06;11.70;;;5.97;;
8823;SDS011;4448;50.904;4.694;2022-10-13T06:59:32;10.93;;;5.30;;
8823;SDS011;4448;50.904;4.694;2022-10-13T07:01:58;6.50;;;3.60;;
8823;SDS011;4448;50.904;4.694;2022-10-13T07:04:23;8.07;;;4.80;;
8823;SDS011;4448;50.904;4.694;2022-10-13T07:06:51;8.27;;;5.37;;
8823;SDS011;4448;50.904;4.694;2022-10-13T07:09:16;6.53;;;3.37;;
8823;SDS011;4448;50.904;4.694;2022-10-13T07:11:44;9.97;;;4.77;;
8823;SDS011;4448;50.904;4.694;2022-10-13T07:14:11;11.07;;;5.63;;
8823;SDS011;4448;50.904;4.694;2022-10-13T07:16:38;11.77;;;6.80;;
8823;SDS011;4448;50.904;4.694;2022-10-13T07:19:04;10.07;;;4.70;;
8823;SDS011;4448;50.904;4.694;2022-10-13T07:21:29;10.40;;;5.30;;
8823;SDS011;4448;50.904;4.694;2022-10-13T07:23:56;9.13;;;4.97;;
8823;SDS011;4448;50.904;4.694;2022-10-13T07:26:22;5.53;;;3.73;;
8823;SDS011;4448;50.904;4.694;2022-10-13T07:28:48;10.30;;;4.67;;
8823;SDS011;4448;50.904;4.694;2022-10-13T07:31:15;13.87;;;4.77;;
8823;SDS011;4448;50.904;4.694;2022-10-13T07:33:45;8.73;;;4.23;;
8823;SDS011;4448;50.904;4.694;2022-10-13T07:36:12;8.17;;;4.63;;
8823;SDS011;4448;50.904;4.694;2022-10-13T07:38:38;5.87;;;4.30;;
8823;SDS011;4448;50.904;4.694;2022-10-13T07:41:06;5.10;;;3.80;;
8823;SDS011;4448;50.904;4.694;2022-10-13T07:43:34;13.97;;;6.20;;
8823;SDS011;4448;50.904;4.694;2022-10-13T07:46:00;12.17;;;6.47;;
8823;SDS011;4448;50.904;4.694;2022-10-13T07:48:29;7.57;;;3.57;;
8823;SDS011;4448;50.904;4.694;2022-10-13T07:50:55;10.97;;;4.67;;
8823;SDS011;4448;50.904;4.694;2022-10-13T07:53:20;9.17;;;3.10;;
8823;SDS011;4448;50.904;4.694;2022-10-13T07:55:48;10.57;;;5.57;;
8823;SDS011;4448;50.904;4.694;2022-10-13T07:58:13;10.67;;;5.97;;
8823;SDS011;4448;50.904;4.694;2022-10-13T08:00:39;11.53;;;4.13;;
8823;SDS011;4448;50.904;4.694;2022-10-13T08:03:05;9.03;;;3.00;;
8823;SDS011;4448;50.904;4.694;2022-10-13T08:05:31;20.87;;;2.37;;
8823;SDS011;4448;50.904;4.694;2022-10-13T08:07:57;11.00;;;2.60;;
8823;SDS011;4448;50.904;4.694;2022-10-13T08:10:22;6.20;;;3.07;;
8823;SDS011;4448;50.904;4.694;2022-10-13T08:12:48;10.87;;;2.93;;
8823;SDS011;4448;50.904;4.694;2022-10-13T08:15:14;1.43;;;1.33;;
8823;SDS011;4448;50.904;4.694;2022-10-13T08:17:40;8.33;;;4.07;;
8823;SDS011;4448;50.904;4.694;2022-10-13T08:20:06;8.40;;;2.47;;
8823;SDS011;4448;50.904;4.694;2022-10-13T08:22:32;4.60;;;3.27;;
8823;SDS011;4448;50.904;4.694;2022-10-13T08:24:59;5.67;;;4.33;;
8823;SDS011;4448;50.904;4.694;2022-10-13T08:27:26;16.30;;;4.03;;
8823;SDS011;4448;50.904;4.694;2022-10-13T08:29:52;10.00;;;4.97;;
8823;SDS011;4448;50.904;4.694;2022-10-13T08:32:19;11.83;;;5.73;;
8823;SDS011;4448;50.904;4.694;2022-10-13T08:34:46;5.90;;;3.03;;
8823;SDS011;4448;50.904;4.694;2022-10-13T08:37:15;6.53;;;2.90;;
8823;SDS011;4448;50.904;4.694;2022-10-13T08:39:43;8.73;;;4.77;;
8823;SDS011;4448;50.904;4.694;2022-10-13T08:42:19;2.90;;;2.60;;
8823;SDS011;4448;50.904;4.694;2022-10-13T08:47:26;5.40;;;3.10;;
8823;SDS011;4448;50.904;4.694;2022-10-13T08:50:10;8.50;;;3.67;;
8823;SDS011;4448;50.904;4.694;2022-10-13T08:55:59;10.20;;;2.63;;
8823;SDS011;4448;50.904;4.694;2022-10-13T08:58:44;10.17;;;3.67;;
8823;SDS011;4448;50.904;4.694;2022-10-13T09:06:14;6.63;;;4.03;;
8823;SDS011;4448;50.904;4.694;2022-10-13T09:08:56;2.67;;;2.47;;
8823;SDS011;4448;50.904;4.694;2022-10-13T09:11:31;4.37;;;2.83;;
8823;SDS011;4448;50.904;4.694;2022-10-13T09:14:00;8.83;;;3.80;;
8823;SDS011;4448;50.904;4.694;2022-10-13T09:16:29;8.30;;;4.67;;
8823;SDS011;4448;50.904;4.694;2022-10-13T09:21:54;4.87;;;3.93;;
8823;SDS011;4448;50.904;4.694;2022-10-13T09:24:22;5.63;;;3.07;;
8823;SDS011;4448;50.904;4.694;2022-10-13T09:27:06;5.07;;;3.10;;
8823;SDS011;4448;50.904;4.694;2022-10-13T09:29:41;6.63;;;4.27;;
8823;SDS011;4448;50.904;4.694;2022-10-13T09:34:40;2.43;;;2.23;;
8823;SDS011;4448;50.904;4.694;2022-10-13T09:37:15;4.00;;;2.80;;
8823;SDS011;4448;50.904;4.694;2022-10-13T09:39:46;3.70;;;3.30;;
8823;SDS011;4448;50.904;4.694;2022-10-13T09:42:27;8.70;;;4.47;;
8823;SDS011;4448;50.904;4.694;2022-10-13T09:45:13;0.80;;;0.80;;
8823;SDS011;4448;50.904;4.694;2022-10-13T09:47:52;46.10;;;9.77;;
8823;SDS011;4448;50.904;4.694;2022-10-13T09:50:27;12.97;;;8.73;;
8823;SDS011;4448;50.904;4.694;2022-10-13T09:59:14;48.47;;;9.13;;
8823;SDS011;4448;50.904;4.694;2022-10-13T10:01:48;12.73;;;4.47;;
8823;SDS011;4448;50.904;4.694;2022-10-13T10:04:18;6.03;;;2.63;;
8823;SDS011;4448;50.904;4.694;2022-10-13T10:06:48;29.67;;;6.07;;
8823;SDS011;4448;50.904;4.694;2022-10-13T10:09:22;27.23;;;6.13;;
8823;SDS011;4448;50.904;4.694;2022-10-13T10:12:05;3.63;;;2.67;;
8823;SDS011;4448;50.904;4.694;2022-10-13T10:14:36;1.13;;;0.97;;
8823;SDS011;4448;50.904;4.694;2022-10-13T10:17:26;7.20;;;3.33;;
8823;SDS011;4448;50.904;4.694;2022-10-13T10:23:08;0.60;;;0.60;;
8823;SDS011;4448;50.904;4.694;2022-10-13T10:26:01;3.40;;;3.10;;
8823;SDS011;4448;50.904;4.694;2022-10-13T10:31:34;1.40;;;0.83;;
8823;SDS011;4448;50.904;4.694;2022-10-13T10:34:34;5.20;;;2.70;;
8823;SDS011;4448;50.904;4.694;2022-10-13T10:37:13;3.57;;;2.07;;
8823;SDS011;4448;50.904;4.694;2022-10-13T10:39:41;2.63;;;2.37;;
8823;SDS011;4448;50.904;4.694;2022-10-13T10:45:39;4.10;;;1.87;;
8823;SDS011;4448;50.904;4.694;2022-10-13T10:48:18;6.00;;;3.70;;
8823;SDS011;4448;50.904;4.694;2022-10-13T10:50:51;3.80;;;2.60;;
8823;SDS011;4448;50.904;4.694;2022-10-13T10:53:21;4.87;;;3.00;;
8823;SDS011;4448;50.904;4.694;2022-10-13T10:56:18;3.90;;;2.87;;
8823;SDS011;4448;50.904;4.694;2022-10-13T11:04:42;4.80;;;3.80;;
8823;SDS011;4448;50.904;4.694;2022-10-13T11:17:33;2.33;;;1.37;;
8823;SDS011;4448;50.904;4.694;2022-10-13T11:25:39;1.83;;;1.50;;
8823;SDS011;4448;50.904;4.694;2022-10-13T11:30:46;2.33;;;1.70;;
8823;SDS011;4448;50.904;4.694;2022-10-13T11:41:53;2.23;;;2.03;;
8823;SDS011;4448;50.904;4.694;2022-10-13T11:55:44;6.27;;;3.97;;
8823;SDS011;4448;50.904;4.694;2022-10-13T11:58:13;0.80;;;0.80;;
8823;SDS011;4448;50.904;4.694;2022-10-13T12:06:05;4.80;;;2.33;;
8823;SDS011;4448;50.904;4.694;2022-10-13T12:08:48;4.70;;;2.60;;
8823;SDS011;4448;50.904;4.694;2022-10-13T12:11:22;2.17;;;1.97;;
8823;SDS011;4448;50.904;4.694;2022-10-13T12:13:50;2.70;;;2.53;;
8823;SDS011;4448;50.904;4.694;2022-10-13T12:16:16;1.17;;;1.17;;
8823;SDS011;4448;50.904;4.694;2022-10-13T12:18:42;5.03;;;2.53;;
8823;SDS011;4448;50.904;4.694;2022-10-13T12:23:35;5.13;;;2.37;;
8823;SDS011;4448;50.904;4.694;2022-10-13T12:26:02;7.20;;;3.00;;
8823;SDS011;4448;50.904;4.694;2022-10-13T12:28:48;11.10;;;1.47;;
8823;SDS011;4448;50.904;4.694;2022-10-13T12:34:16;3.53;;;1.40;;
8823;SDS011;4448;50.904;4.694;2022-10-13T12:37:02;2.70;;;2.43;;
8823;SDS011;4448;50.904;4.694;2022-10-13T12:39:35;1.00;;;1.00;;
8823;SDS011;4448;50.904;4.694;2022-10-13T12:42:02;1.03;;;0.97;;
8823;SDS011;4448;50.904;4.694;2022-10-13T12:44:31;3.53;;;2.43;;
8823;SDS011;4448;50.904;4.694;2022-10-13T12:46:58;0.67;;;0.57;;
8823;SDS011;4448;50.904;4.694;2022-10-13T12:49:30;2.00;;;1.37;;
8823;SDS011;4448;50.904;4.694;2022-10-13T12:52:13;0.30;;;0.30;;
8823;SDS011;4448;50.904;4.694;2022-10-13T12:54:51;9.23;;;2.13;;
8823;SDS011;4448;50.904;4.694;2022-10-13T12:57:19;5.33;;;2.83;;
8823;SDS011;4448;50.904;4.694;2022-10-13T13:00:00;0.67;;;0.50;;
8823;SDS011;4448;50.904;4.694;2022-10-13T13:02:28;4.40;;;4.00;;
8823;SDS011;4448;50.904;4.694;2022-10-13T13:04:56;8.33;;;4.10;;
8823;SDS011;4448;50.904;4.694;2022-10-13T13:07:31;1.53;;;1.30;;
8823;SDS011;4448;50.904;4.694;2022-10-13T13:10:01;3.07;;;2.63;;
8823;SDS011;4448;50.904;4.694;2022-10-13T13:12:33;4.67;;;2.27;;
8823;SDS011;4448;50.904;4.694;2022-10-13T13:15:19;2.53;;;2.33;;
8823;SDS011;4448;50.904;4.694;2022-10-13T13:17:48;3.97;;;2.83;;
8823;SDS011;4448;50.904;4.694;2022-10-13T13:20:30;0.80;;;0.80;;
8823;SDS011;4448;50.904;4.694;2022-10-13T13:22:58;1.23;;;1.17;;
8823;SDS011;4448;50.904;4.694;2022-10-13T13:25:23;2.80;;;2.57;;
8823;SDS011;4448;50.904;4.694;2022-10-13T13:27:50;1.80;;;1.50;;
8823;SDS011;4448;50.904;4.694;2022-10-13T13:30:18;1.17;;;1.17;;
8823;SDS011;4448;50.904;4.694;2022-10-13T13:32:45;1.03;;;1.03;;
8823;SDS011;4448;50.904;4.694;2022-10-13T13:35:11;4.17;;;2.57;;
8823;SDS011;4448;50.904;4.694;2022-10-13T13:37:41;4.93;;;2.20;;
8823;SDS011;4448;50.904;4.694;2022-10-13T13:40:18;2.63;;;1.73;;
8823;SDS011;4448;50.904;4.694;2022-10-13T13:42:45;5.00;;;3.27;;
8823;SDS011;4448;50.904;4.694;2022-10-13T13:45:12;1.63;;;1.53;;
8823;SDS011;4448;50.904;4.694;2022-10-13T13:47:38;7.30;;;3.70;;
8823;SDS011;4448;50.904;4.694;2022-10-13T13:50:05;7.10;;;3.00;;
8823;SDS011;4448;50.904;4.694;2022-10-13T13:52:47;5.77;;;3.87;;
8823;SDS011;4448;50.904;4.694;2022-10-13T13:55:12;4.37;;;2.00;;
8823;SDS011;4448;50.904;4.694;2022-10-13T13:57:38;2.37;;;2.17;;
8823;SDS011;4448;50.904;4.694;2022-10-13T14:00:04;1.53;;;0.97;;
8823;SDS011;4448;50.904;4.694;2022-10-13T14:02:30;1.07;;;1.00;;
8823;SDS011;4448;50.904;4.694;2022-10-13T14:04:57;6.30;;;4.53;;
8823;SDS011;4448;50.904;4.694;2022-10-13T14:07:22;4.77;;;3.40;;
8823;SDS011;4448;50.904;4.694;2022-10-13T14:09:48;2.63;;;1.80;;
8823;SDS011;4448;50.904;4.694;2022-10-13T14:12:14;0.30;;;0.30;;
8823;SDS011;4448;50.904;4.694;2022-10-13T14:14:39;4.17;;;2.20;;
8823;SDS011;4448;50.904;4.694;2022-10-13T14:17:05;0.83;;;0.83;;
8823;SDS011;4448;50.904;4.694;2022-10-13T14:19:31;0.20;;;0.20;;
8823;SDS011;4448;50.904;4.694;2022-10-13T14:21:57;0.43;;;0.43;;
8823;SDS011;4448;50.904;4.694;2022-10-13T14:24:23;1.90;;;1.80;;
8823;SDS011;4448;50.904;4.694;2022-10-13T14:26:49;2.23;;;1.70;;
8823;SDS011;4448;50.904;4.694;2022-10-13T14:29:15;1.27;;;1.17;;
8823;SDS011;4448;50.904;4.694;2022-10-13T14:31:40;0.87;;;0.80;;
8823;SDS011;4448;50.904;4.694;2022-10-13T14:34:09;0.97;;;0.97;;
8823;SDS011;4448;50.904;4.694;2022-10-13T14:36:35;1.57;;;1.47;;
8823;SDS011;4448;50.904;4.694;2022-10-13T14:39:01;1.33;;;1.23;;
8823;SDS011;4448;50.904;4.694;2022-10-13T14:41:28;1.53;;;1.27;;
8823;SDS011;4448;50.904;4.694;2022-10-13T14:43:54;0.63;;;0.63;;
8823;SDS011;4448;50.904;4.694;2022-10-13T14:46:21;3.37;;;2.40;;
8823;SDS011;4448;50.904;4.694;2022-10-13T14:48:49;7.20;;;2.80;;
8823;SDS011;4448;50.904;4.694;2022-10-13T14:51:14;3.80;;;2.90;;
8823;SDS011;4448;50.904;4.694;2022-10-13T14:53:41;4.80;;;2.93;;
8823;SDS011;4448;50.904;4.694;2022-10-13T14:58:42;9.43;;;5.20;;
8823;SDS011;4448;50.904;4.694;2022-10-13T15:01:08;8.27;;;4.47;;
8823;SDS011;4448;50.904;4.694;2022-10-13T15:03:34;4.63;;;2.93;;
8823;SDS011;4448;50.904;4.694;2022-10-13T15:06:07;0.80;;;0.80;;
8823;SDS011;4448;50.904;4.694;2022-10-13T15:08:38;2.63;;;2.00;;
8823;SDS011;4448;50.904;4.694;2022-10-13T15:11:04;1.57;;;1.47;;
8823;SDS011;4448;50.904;4.694;2022-10-13T15:13:30;3.17;;;2.87;;
8823;SDS011;4448;50.904;4.694;2022-10-13T15:15:56;2.77;;;2.53;;
8823;SDS011;4448;50.904;4.694;2022-10-13T15:18:25;1.63;;;1.53;;
8823;SDS011;4448;50.904;4.694;2022-10-13T15:20:56;16.13;;;3.17;;
8823;SDS011;4448;50.904;4.694;2022-10-13T15:23:23;2.17;;;1.33;;
8823;SDS011;4448;50.904;4.694;2022-10-13T15:25:55;3.30;;;3.00;;
8823;SDS011;4448;50.904;4.694;2022-10-13T15:28:23;0.67;;;0.67;;
8823;SDS011;4448;50.904;4.694;2022-10-13T15:30:51;2.00;;;1.90;;
8823;SDS011;4448;50.904;4.694;2022-10-13T15:33:17;0.90;;;0.90;;
8823;SDS011;4448;50.904;4.694;2022-10-13T15:35:46;3.00;;;1.33;;
8823;SDS011;4448;50.904;4.694;2022-10-13T15:38:16;5.97;;;3.43;;
8823;SDS011;4448;50.904;4.694;2022-10-13T15:40:46;8.63;;;4.30;;
8823;SDS011;4448;50.904;4.694;2022-10-13T15:43:11;8.20;;;3.80;;
8823;SDS011;4448;50.904;4.694;2022-10-13T15:45:38;4.00;;;2.50;;
8823;SDS011;4448;50.904;4.694;2022-10-13T15:48:05;4.77;;;2.10;;
8823;SDS011;4448;50.904;4.694;2022-10-13T15:50:32;2.90;;;1.43;;
8823;SDS011;4448;50.904;4.694;2022-10-13T15:52:57;1.23;;;1.13;;
8823;SDS011;4448;50.904;4.694;2022-10-13T15:55:23;2.20;;;1.87;;
8823;SDS011;4448;50.904;4.694;2022-10-13T15:57:49;4.00;;;1.60;;
8823;SDS011;4448;50.904;4.694;2022-10-13T16:00:15;1.90;;;1.20;;
8823;SDS011;4448;50.904;4.694;2022-10-13T16:02:43;1.93;;;1.83;;
8823;SDS011;4448;50.904;4.694;2022-10-13T16:05:11;2.10;;;1.83;;
8823;SDS011;4448;50.904;4.694;2022-10-13T16:07:37;2.43;;;1.70;;
8823;SDS011;4448;50.904;4.694;2022-10-13T16:10:05;2.37;;;2.17;;
8823;SDS011;4448;50.904;4.694;2022-10-13T16:12:33;3.37;;;2.20;;
8823;SDS011;4448;50.904;4.694;2022-10-13T16:14:59;1.20;;;1.20;;
8823;SDS011;4448;50.904;4.694;2022-10-13T16:17:25;1.57;;;1.37;;
8823;SDS011;4448;50.904;4.694;2022-10-13T16:19:50;7.97;;;1.77;;
8823;SDS011;4448;50.904;4.694;2022-10-13T16:22:16;1.43;;;1.07;;
8823;SDS011;4448;50.904;4.694;2022-10-13T16:24:41;1.30;;;1.20;;
8823;SDS011;4448;50.904;4.694;2022-10-13T16:27:07;4.57;;;2.73;;
8823;SDS011;4448;50.904;4.694;2022-10-13T16:29:33;1.73;;;0.57;;
8823;SDS011;4448;50.904;4.694;2022-10-13T16:31:58;1.77;;;1.40;;
8823;SDS011;4448;50.904;4.694;2022-10-13T16:34:24;0.73;;;0.70;;
8823;SDS011;4448;50.904;4.694;2022-10-13T16:36:53;3.20;;;2.57;;
8823;SDS011;4448;50.904;4.694;2022-10-13T16:39:19;3.43;;;3.03;;
8823;SDS011;4448;50.904;4.694;2022-10-13T16:41:45;1.80;;;1.70;;
8823;SDS011;4448;50.904;4.694;2022-10-13T16:44:11;1.93;;;0.90;;
8823;SDS011;4448;50.904;4.694;2022-10-13T16:46:37;0.83;;;0.70;;
8823;SDS011;4448;50.904;4.694;2022-10-13T16:49:04;4.63;;;2.93;;
8823;SDS011;4448;50.904;4.694;2022-10-13T16:51:29;3.37;;;2.20;;
8823;SDS011;4448;50.904;4.694;2022-10-13T16:53:56;3.63;;;2.47;;
8823;SDS011;4448;50.904;4.694;2022-10-13T16:56:23;0.90;;;0.90;;
8823;SDS011;4448;50.904;4.694;2022-10-13T16:58:51;3.03;;;2.10;;
8823;SDS011;4448;50.904;4.694;2022-10-13T17:01:25;2.27;;;2.03;;
8823;SDS011;4448;50.904;4.694;2022-10-13T17:03:51;2.07;;;1.33;;
8823;SDS011;4448;50.904;4.694;2022-10-13T17:06:18;5.33;;;2.97;;
8823;SDS011;4448;50.904;4.694;2022-10-13T17:08:46;1.53;;;1.33;;
8823;SDS011;4448;50.904;4.694;2022-10-13T17:11:22;1.67;;;1.57;;
8823;SDS011;4448;50.904;4.694;2022-10-13T17:13:50;0.93;;;0.83;;
8823;SDS011;4448;50.904;4.694;2022-10-13T17:16:16;2.90;;;2.63;;
8823;SDS011;4448;50.904;4.694;2022-10-13T17:18:42;1.03;;;0.80;;
8823;SDS011;4448;50.904;4.694;2022-10-13T17:21:09;2.20;;;1.97;;
8823;SDS011;4448;50.904;4.694;2022-10-13T17:23:37;1.50;;;0.93;;